createdAt,value
2023-03-19T00:00:36.848Z,2
2023-03-19T00:01:36.803Z,2
2023-03-19T00:02:36.883Z,2
2023-03-19T00:03:36.881Z,2
2023-03-19T00:04:36.789Z,2
2023-03-19T00:05:36.789Z,2
2023-03-19T00:06:36.763Z,2
2023-03-19T00:07:36.742Z,2
2023-03-19T00:08:36.743Z,2
2023-03-19T00:09:36.743Z,2
2023-03-19T00:10:36.714Z,2
2023-03-19T00:11:36.698Z,2
2023-03-19T00:12:36.697Z,2
2023-03-19T00:13:36.708Z,2
2023-03-19T00:14:36.687Z,2
2023-03-19T00:15:36.756Z,2
2023-03-19T00:16:36.778Z,2
2023-03-19T00:17:36.636Z,2
2023-03-19T00:18:36.642Z,2
2023-03-19T00:19:36.641Z,2
2023-03-19T00:20:36.632Z,2
2023-03-19T00:21:36.592Z,2
2023-03-19T00:22:36.595Z,2
2023-03-19T00:23:36.609Z,2
2023-03-19T00:24:36.574Z,2
2023-03-19T00:25:36.562Z,2
2023-03-19T00:26:36.553Z,2
2023-03-19T00:27:36.533Z,2
2023-03-19T00:28:42.567Z,2
2023-03-19T00:29:36.518Z,2
2023-03-19T00:30:36.581Z,2
2023-03-19T00:31:36.496Z,2
2023-03-19T00:32:36.535Z,2
2023-03-19T00:33:36.673Z,2
2023-03-19T00:34:36.480Z,2
2023-03-19T00:35:36.807Z,2
2023-03-19T00:36:36.464Z,2
2023-03-19T00:37:36.430Z,2
2023-03-19T00:38:42.432Z,2
2023-03-19T00:39:36.402Z,2
2023-03-19T00:40:36.407Z,2
2023-03-19T00:41:36.387Z,2
2023-03-19T00:42:36.380Z,2
2023-03-19T00:43:36.365Z,2
2023-03-19T00:44:42.392Z,2
2023-03-19T00:45:36.338Z,2
2023-03-19T00:46:36.339Z,2
2023-03-19T00:47:36.346Z,2
2023-03-19T00:48:36.340Z,2
2023-03-19T00:49:36.297Z,2
2023-03-19T00:50:36.301Z,2
2023-03-19T00:51:36.278Z,2
2023-03-19T00:52:36.309Z,2
2023-03-19T00:53:36.252Z,2
2023-03-19T00:54:36.284Z,2
2023-03-19T00:55:36.244Z,2
2023-03-19T00:56:36.230Z,2
2023-03-19T00:57:36.218Z,2
2023-03-19T00:58:36.224Z,2
2023-03-19T00:59:36.194Z,2
2023-03-19T01:00:36.214Z,2
2023-03-19T01:01:36.317Z,2
2023-03-19T01:02:36.167Z,2
2023-03-19T01:03:36.151Z,2
2023-03-19T01:04:36.204Z,2
2023-03-19T01:05:36.126Z,2
2023-03-19T01:06:36.120Z,2
2023-03-19T01:07:36.110Z,2
2023-03-19T01:08:36.101Z,2
2023-03-19T01:09:36.086Z,2
2023-03-19T01:10:36.084Z,2
2023-03-19T01:11:36.063Z,2
2023-03-19T01:12:36.054Z,2
2023-03-19T01:13:36.040Z,2
2023-03-19T01:14:36.139Z,2
2023-03-19T01:15:36.013Z,2
2023-03-19T01:16:36.076Z,2
2023-03-19T01:17:35.993Z,2
2023-03-19T01:18:35.992Z,2
2023-03-19T01:19:35.974Z,2
2023-03-19T01:20:35.974Z,2
2023-03-19T01:21:35.954Z,2
2023-03-19T01:22:36.030Z,2
2023-03-19T01:23:35.937Z,2
2023-03-19T01:24:35.937Z,2
2023-03-19T01:25:35.915Z,2
2023-03-19T01:26:35.906Z,2
2023-03-19T01:27:35.890Z,2
2023-03-19T01:28:36.092Z,2
2023-03-19T01:29:35.879Z,2
2023-03-19T01:30:36.045Z,2
2023-03-19T01:31:35.963Z,2
2023-03-19T01:32:35.887Z,2
2023-03-19T01:33:35.825Z,2
2023-03-19T01:34:35.830Z,2
2023-03-19T01:35:35.870Z,2
2023-03-19T01:36:35.810Z,2
2023-03-19T01:37:35.786Z,2
2023-03-19T01:38:35.789Z,2
2023-03-19T01:39:35.769Z,2
2023-03-19T01:40:35.919Z,2
2023-03-19T01:41:35.746Z,2
2023-03-19T01:42:35.755Z,2
2023-03-19T01:43:35.724Z,2
2023-03-19T01:44:35.714Z,2
2023-03-19T01:45:35.698Z,2
2023-03-19T01:46:35.755Z,2
2023-03-19T01:47:35.687Z,2
2023-03-19T01:48:35.740Z,2
2023-03-19T01:49:35.664Z,2
2023-03-19T01:50:35.838Z,2
2023-03-19T01:51:35.645Z,2
2023-03-19T01:52:35.649Z,2
2023-03-19T01:53:35.608Z,2
2023-03-19T01:54:35.607Z,2
2023-03-19T01:55:35.589Z,2
2023-03-19T01:56:35.607Z,2
2023-03-19T01:57:35.580Z,2
2023-03-19T01:58:35.583Z,2
2023-03-19T01:59:35.562Z,2
2023-03-19T02:00:35.705Z,2
2023-03-19T02:01:35.768Z,2
2023-03-19T02:02:35.529Z,2
2023-03-19T02:03:35.519Z,2
2023-03-19T02:04:35.663Z,2
2023-03-19T02:05:35.495Z,2
2023-03-19T02:06:41.485Z,2
2023-03-19T02:07:35.487Z,2
2023-03-19T02:08:35.455Z,2
2023-03-19T02:09:35.441Z,2
2023-03-19T02:10:35.754Z,2
2023-03-19T02:11:35.425Z,2
2023-03-19T02:12:35.421Z,2
2023-03-19T02:13:35.415Z,2
2023-03-19T02:14:35.429Z,2
2023-03-19T02:15:35.376Z,2
2023-03-19T02:16:35.386Z,2
2023-03-19T02:17:35.364Z,2
2023-03-19T02:18:35.352Z,2
2023-03-19T02:19:35.341Z,2
2023-03-19T02:20:35.666Z,2
2023-03-19T02:21:35.318Z,2
2023-03-19T02:22:35.312Z,2
2023-03-19T02:23:35.303Z,2
2023-03-19T02:24:35.314Z,2
2023-03-19T02:25:35.269Z,2
2023-03-19T02:26:35.271Z,2
2023-03-19T02:27:35.256Z,2
2023-03-19T02:28:35.457Z,2
2023-03-19T02:29:35.225Z,2
2023-03-19T02:30:35.582Z,2
2023-03-19T02:31:35.242Z,2
2023-03-19T02:32:41.244Z,2
2023-03-19T02:33:35.183Z,2
2023-03-19T02:34:35.188Z,2
2023-03-19T02:35:35.229Z,2
2023-03-19T02:36:35.192Z,2
2023-03-19T02:37:35.153Z,2
2023-03-19T02:38:35.139Z,2
2023-03-19T02:39:35.149Z,2
2023-03-19T02:40:35.257Z,2
2023-03-19T02:41:35.110Z,2
2023-03-19T02:42:35.101Z,2
2023-03-19T02:43:41.118Z,2
2023-03-19T02:44:35.079Z,2
2023-03-19T02:45:35.068Z,2
2023-03-19T02:46:41.160Z,2
2023-03-19T02:47:35.039Z,2
2023-03-19T02:48:35.040Z,2
2023-03-19T02:49:35.030Z,2
2023-03-19T02:50:35.316Z,2
2023-03-19T02:51:34.997Z,2
2023-03-19T02:52:35.016Z,2
2023-03-19T02:53:34.974Z,2
2023-03-19T02:54:34.980Z,2
2023-03-19T02:55:34.950Z,2
2023-03-19T02:56:34.947Z,2
2023-03-19T02:57:34.931Z,2
2023-03-19T02:58:34.949Z,2
2023-03-19T02:59:34.917Z,2
2023-03-19T03:00:35.449Z,2
2023-03-19T03:01:34.894Z,2
2023-03-19T03:02:34.902Z,2
2023-03-19T03:03:34.878Z,2
2023-03-19T03:04:34.880Z,2
2023-03-19T03:05:34.854Z,2
2023-03-19T03:06:34.850Z,2
2023-03-19T03:07:34.847Z,2
2023-03-19T03:08:34.877Z,2
2023-03-19T03:09:34.821Z,2
2023-03-19T03:10:35.137Z,2
2023-03-19T03:11:34.802Z,2
2023-03-19T03:12:34.791Z,2
2023-03-19T03:13:34.788Z,2
2023-03-19T03:14:34.769Z,2
2023-03-19T03:15:34.965Z,2
2023-03-19T03:16:34.861Z,2
2023-03-19T03:17:34.729Z,2
2023-03-19T03:18:34.725Z,2
2023-03-19T03:19:34.717Z,2
2023-03-19T03:20:35.230Z,2
2023-03-19T03:21:35.670Z,2
2023-03-19T03:22:34.692Z,2
2023-03-19T03:23:34.677Z,2
2023-03-19T03:24:34.694Z,2
2023-03-19T03:25:34.647Z,2
2023-03-19T03:26:34.651Z,2
2023-03-19T03:27:34.644Z,2
2023-03-19T03:28:34.623Z,2
2023-03-19T03:29:34.605Z,2
2023-03-19T03:30:35.051Z,2
2023-03-19T03:31:34.662Z,2
2023-03-19T03:32:34.640Z,2
2023-03-19T03:33:34.566Z,2
2023-03-19T03:34:34.552Z,2
2023-03-19T03:35:34.653Z,2
2023-03-19T03:36:34.554Z,2
2023-03-19T03:37:34.527Z,2
2023-03-19T03:38:34.535Z,2
2023-03-19T03:39:34.507Z,2
2023-03-19T03:40:34.783Z,2
2023-03-19T03:41:34.476Z,2
2023-03-19T03:42:34.471Z,2
2023-03-19T03:43:36.521Z,2
2023-03-19T03:44:34.446Z,2
2023-03-19T03:45:34.747Z,2
2023-03-19T03:46:34.437Z,2
2023-03-19T03:47:34.459Z,2
2023-03-19T03:48:34.400Z,2
2023-03-19T03:49:34.398Z,2
2023-03-19T03:50:34.574Z,2
2023-03-19T03:51:34.374Z,2
2023-03-19T03:52:34.355Z,2
2023-03-19T03:53:34.361Z,2
2023-03-19T03:54:34.338Z,2
2023-03-19T03:55:34.343Z,2
2023-03-19T03:56:34.336Z,2
2023-03-19T03:57:34.313Z,2
2023-03-19T03:58:34.299Z,2
2023-03-19T03:59:34.291Z,2
2023-03-19T04:00:34.635Z,2
2023-03-19T04:01:34.271Z,2
2023-03-19T04:02:34.304Z,2
2023-03-19T04:03:34.308Z,2
2023-03-19T04:04:34.237Z,2
2023-03-19T04:05:40.237Z,2
2023-03-19T04:06:34.225Z,2
2023-03-19T04:07:34.400Z,2
2023-03-19T04:08:35.236Z,2
2023-03-19T04:09:34.190Z,2
2023-03-19T04:10:34.570Z,2
2023-03-19T04:11:34.165Z,2
2023-03-19T04:12:36.198Z,2
2023-03-19T04:13:34.133Z,2
2023-03-19T04:14:34.134Z,2
2023-03-19T04:15:34.122Z,2
2023-03-19T04:16:34.172Z,2
2023-03-19T04:17:34.117Z,2
2023-03-19T04:18:34.088Z,2
2023-03-19T04:19:34.087Z,2
2023-03-19T04:20:40.089Z,2
2023-03-19T04:21:34.079Z,2
2023-03-19T04:22:34.049Z,2
2023-03-19T04:23:34.045Z,2
2023-03-19T04:24:34.036Z,2
2023-03-19T04:25:34.006Z,2
2023-03-19T04:26:34.004Z,2
2023-03-19T04:27:33.991Z,2
2023-03-19T04:28:34.002Z,2
2023-03-19T04:29:33.983Z,2
2023-03-19T04:30:35.446Z,2
2023-03-19T04:31:33.947Z,2
2023-03-19T04:32:33.983Z,2
2023-03-19T04:33:33.925Z,2
2023-03-19T04:34:34.126Z,2
2023-03-19T04:35:33.951Z,2
2023-03-19T04:36:33.909Z,2
2023-03-19T04:37:33.892Z,2
2023-03-19T04:38:34.288Z,2
2023-03-19T04:39:33.869Z,2
2023-03-19T04:40:34.145Z,2
2023-03-19T04:41:33.842Z,2
2023-03-19T04:42:39.844Z,2
2023-03-19T04:43:33.821Z,2
2023-03-19T04:44:34.052Z,2
2023-03-19T04:45:33.793Z,2
2023-03-19T04:46:33.799Z,2
2023-03-19T04:47:39.785Z,2
2023-03-19T04:48:33.771Z,2
2023-03-19T04:49:39.761Z,2
2023-03-19T04:50:34.083Z,2
2023-03-19T04:51:33.940Z,2
2023-03-19T04:52:33.735Z,2
2023-03-19T04:53:33.714Z,2
2023-03-19T04:54:33.721Z,2
2023-03-19T04:55:33.704Z,2
2023-03-19T04:56:39.699Z,2
2023-03-19T04:57:33.666Z,2
2023-03-19T04:58:33.669Z,2
2023-03-19T04:59:33.657Z,2
2023-03-19T05:00:33.843Z,2
2023-03-19T05:01:33.912Z,2
2023-03-19T05:02:33.632Z,2
2023-03-19T05:03:33.672Z,2
2023-03-19T05:04:33.605Z,2
2023-03-19T05:05:33.578Z,2
2023-03-19T05:06:33.581Z,2
2023-03-19T05:07:33.769Z,2
2023-03-19T05:08:33.560Z,2
2023-03-19T05:09:33.543Z,2
2023-03-19T05:10:33.810Z,2
2023-03-19T05:11:33.526Z,2
2023-03-19T05:12:33.733Z,2
2023-03-19T05:13:33.506Z,2
2023-03-19T05:14:33.500Z,2
2023-03-19T05:15:33.570Z,2
2023-03-19T05:16:33.453Z,26.
2023-03-19T05:17:33.439Z,25.
2023-03-19T05:18:33.405Z,25.
2023-03-19T05:19:33.386Z,24.
2023-03-19T05:20:33.697Z,25.
2023-03-19T05:21:33.373Z,25.
2023-03-19T05:22:33.358Z,25.
2023-03-19T05:23:33.346Z,25.
2023-03-19T05:24:33.338Z,24.
2023-03-19T05:25:33.324Z,24.
2023-03-19T05:26:33.320Z,25.
2023-03-19T05:27:39.313Z,25.
2023-03-19T05:28:33.316Z,25.
2023-03-19T05:29:33.289Z,25.
2023-03-19T05:30:33.600Z,25.
2023-03-19T05:31:33.480Z,25.
2023-03-19T05:32:33.345Z,25.
2023-03-19T05:33:33.235Z,25.
2023-03-19T05:34:33.306Z,25.
2023-03-19T05:35:33.452Z,25.
2023-03-19T05:36:33.212Z,25.
2023-03-19T05:37:33.197Z,25.
2023-03-19T05:38:33.198Z,25.
2023-03-19T05:39:33.183Z,25.
2023-03-19T05:40:33.425Z,25.
2023-03-19T05:41:33.146Z,25.
2023-03-19T05:42:33.152Z,25.
2023-03-19T05:43:33.341Z,25.
2023-03-19T05:44:33.137Z,25.
2023-03-19T05:45:33.115Z,25.
2023-03-19T05:46:33.138Z,25.
2023-03-19T05:47:33.090Z,24.
2023-03-19T05:48:39.122Z,25.
2023-03-19T05:49:39.075Z,25.
2023-03-19T05:50:33.287Z,25.
2023-03-19T05:51:33.041Z,25.
2023-03-19T05:52:33.043Z,25.
2023-03-19T05:53:33.072Z,25.
2023-03-19T05:54:33.013Z,25.
2023-03-19T05:55:32.997Z,25.
2023-03-19T05:56:32.998Z,24.
2023-03-19T05:57:32.987Z,25.
2023-03-19T05:58:33.001Z,25.
2023-03-19T05:59:32.958Z,25.
2023-03-19T06:00:33.354Z,25.
2023-03-19T06:01:32.942Z,25.
2023-03-19T06:02:33.007Z,25.
2023-03-19T06:03:32.955Z,24.49
2023-03-19T06:04:32.935Z,24.92
2023-03-19T06:05:32.891Z,25.51
2023-03-19T06:06:32.910Z,25.51
2023-03-19T06:07:32.879Z,24.97
2023-03-19T06:08:32.875Z,25.13
2023-03-19T06:09:32.874Z,25.83
2023-03-19T06:10:33.156Z,25.35
2023-03-19T06:11:32.829Z,24.70
2023-03-19T06:12:32.826Z,25.51
2023-03-19T06:13:32.802Z,25.62
2023-03-19T06:14:32.818Z,25.29
2023-03-19T06:15:33.038Z,25.29
2023-03-19T06:16:32.982Z,25.19
2023-03-19T06:17:38.779Z,25.51
2023-03-19T06:18:32.766Z,25.83
2023-03-19T06:19:32.742Z,25.67
2023-03-19T06:20:33.086Z,25.62
2023-03-19T06:22:19.645Z,25.67
2023-03-19T06:23:19.431Z,24.86
2023-03-19T06:24:19.438Z,25.40
2023-03-19T06:25:19.412Z,25.72
2023-03-19T06:26:19.393Z,25.45
2023-03-19T06:27:25.425Z,25.99
2023-03-19T06:28:19.394Z,25.24
2023-03-19T06:29:19.361Z,25.08
2023-03-19T06:30:19.370Z,25.56
2023-03-19T06:31:19.393Z,25.56
2023-03-19T06:32:19.535Z,25.62
2023-03-19T06:33:19.323Z,24.92
2023-03-19T06:34:19.312Z,24.11
2023-03-19T06:35:19.311Z,25.29
2023-03-19T06:36:19.317Z,25.78
2023-03-19T06:37:19.302Z,24.97
2023-03-19T06:38:19.270Z,25.19
2023-03-19T06:39:19.288Z,25.13
2023-03-19T06:40:19.265Z,25.35
2023-03-19T06:41:19.248Z,25.24
2023-03-19T06:42:19.380Z,26.15
2023-03-19T06:43:19.224Z,25.19
2023-03-19T06:44:19.201Z,25.40
2023-03-19T06:45:19.231Z,25.72
2023-03-19T06:46:19.351Z,25.67
2023-03-19T06:47:19.184Z,25.29
2023-03-19T06:48:19.165Z,25.24
2023-03-19T06:49:19.422Z,25.24
2023-03-19T06:50:19.146Z,25.35
2023-03-19T06:51:19.140Z,25.35
2023-03-19T06:52:19.144Z,25.62
2023-03-19T06:53:19.134Z,25.29
2023-03-19T06:54:19.117Z,25.67
2023-03-19T06:55:19.215Z,25.67
2023-03-19T06:56:19.096Z,25.62
2023-03-19T06:57:19.091Z,25.88
2023-03-19T06:58:19.076Z,25.24
2023-03-19T06:59:19.060Z,25.83
2023-03-19T07:00:19.047Z,25.56
2023-03-19T07:01:19.126Z,25.08
2023-03-19T07:02:19.024Z,25.24
2023-03-19T07:03:19.018Z,25.67
2023-03-19T07:04:19.021Z,24.97
2023-03-19T07:05:19.194Z,25.19
2023-03-19T07:06:18.978Z,25.62
2023-03-19T07:07:18.981Z,25.78
2023-03-19T07:08:18.989Z,25.45
2023-03-19T07:09:18.954Z,25.40
2023-03-19T07:10:18.949Z,25.51
2023-03-19T07:11:18.936Z,25.02
2023-03-19T07:12:18.923Z,24.97
2023-03-19T07:13:18.917Z,25.51
2023-03-19T07:14:18.888Z,25.62
2023-03-19T07:15:18.923Z,25.29
2023-03-19T07:16:18.932Z,25.83
2023-03-19T07:17:18.900Z,25.19
2023-03-19T07:18:18.889Z,25.62
2023-03-19T07:19:18.883Z,25.99
2023-03-19T07:20:18.838Z,25.67
2023-03-19T07:21:19.032Z,25.29
2023-03-19T07:22:18.803Z,25.67
2023-03-19T07:23:18.842Z,26.04
2023-03-19T07:24:18.837Z,25.29
2023-03-19T07:25:18.783Z,25.29
2023-03-19T07:26:18.771Z,25.13
2023-03-19T07:27:18.762Z,25.40
2023-03-19T07:28:18.753Z,25.35
2023-03-19T07:29:18.752Z,25.78
2023-03-19T07:30:18.735Z,25.56
2023-03-19T07:31:18.782Z,25.67
2023-03-19T07:32:18.714Z,25.83
2023-03-19T07:33:18.691Z,25.29
2023-03-19T07:34:18.899Z,25.88
2023-03-19T07:35:18.676Z,24.33
2023-03-19T07:36:24.882Z,25.51
2023-03-19T07:37:20.702Z,25.67
2023-03-19T07:38:18.659Z,25.51
2023-03-19T07:39:18.634Z,25.24
2023-03-19T07:40:18.646Z,25.62
2023-03-19T07:41:18.625Z,25.08
2023-03-19T07:42:18.609Z,25.24
2023-03-19T07:43:18.584Z,25.45
2023-03-19T07:44:18.582Z,25.13
2023-03-19T07:45:18.661Z,25.72
2023-03-19T07:46:18.677Z,25.72
2023-03-19T07:47:28.654Z,26.04
2023-03-19T07:48:19.584Z,25.56
2023-03-19T07:49:18.518Z,25.08
2023-03-19T07:50:18.544Z,24.33
2023-03-19T07:51:18.523Z,25.13
2023-03-19T07:52:18.514Z,25.35
2023-03-19T07:53:18.492Z,25.13
2023-03-19T07:54:18.489Z,25.29
2023-03-19T07:55:18.475Z,25.51
2023-03-19T07:56:18.687Z,25.35
2023-03-19T07:57:18.437Z,25.19
2023-03-19T07:58:18.438Z,25.51
2023-03-19T07:59:18.709Z,25.56
2023-03-19T08:00:18.427Z,25.40
2023-03-19T08:01:24.412Z,25.94
2023-03-19T08:02:20.399Z,25.88
2023-03-19T08:03:18.379Z,25.24
2023-03-19T08:04:18.406Z,25.40
2023-03-19T08:05:18.355Z,25.40
2023-03-19T08:06:18.353Z,25.62
2023-03-19T08:07:18.335Z,25.29
2023-03-19T08:08:18.338Z,25.62
2023-03-19T08:09:18.312Z,25.72
2023-03-19T08:10:18.317Z,25.62
2023-03-19T08:11:18.293Z,24.92
2023-03-19T08:12:24.336Z,25.99
2023-03-19T08:13:18.269Z,25.72
2023-03-19T08:14:18.266Z,25.45
2023-03-19T08:15:18.258Z,25.45
2023-03-19T08:16:18.246Z,25.19
2023-03-19T08:17:24.262Z,25.56
2023-03-19T08:18:18.222Z,25.45
2023-03-19T08:19:18.204Z,25.56
2023-03-19T08:20:18.207Z,25.35
2023-03-19T08:21:18.185Z,25.29
2023-03-19T08:22:18.196Z,25.51
2023-03-19T08:23:18.181Z,25.13
2023-03-19T08:24:18.160Z,25.62
2023-03-19T08:25:18.145Z,25.45
2023-03-19T08:26:18.139Z,25.78
2023-03-19T08:27:18.120Z,25.02
2023-03-19T08:28:24.152Z,25.24
2023-03-19T08:29:19.108Z,25.62
2023-03-19T08:30:18.102Z,25.24
2023-03-19T08:31:18.158Z,24.65
2023-03-19T08:32:52.812Z,25.67
2023-03-19T08:33:52.776Z,25.67
2023-03-19T08:34:52.744Z,25.67
2023-03-19T08:35:52.839Z,25.83
2023-03-19T08:36:52.932Z,26.26
2023-03-19T08:37:52.731Z,25.62
2023-03-19T08:38:52.712Z,25.99
2023-03-19T08:39:52.723Z,25.83
2023-03-19T08:40:58.897Z,25.99
2023-03-19T08:41:52.699Z,26.26
2023-03-19T08:42:52.660Z,25.78
2023-03-19T08:43:52.697Z,25.99
2023-03-19T08:44:52.645Z,26.10
2023-03-19T08:45:52.754Z,25.94
2023-03-19T08:46:52.619Z,26.37
2023-03-19T08:47:58.625Z,25.51
2023-03-19T08:48:52.599Z,25.40
2023-03-19T08:49:52.618Z,25.94
2023-03-19T08:50:52.573Z,25.83
2023-03-19T08:51:52.609Z,25.56
2023-03-19T08:52:52.565Z,25.94
2023-03-19T08:53:52.558Z,25.99
2023-03-19T08:54:52.945Z,25.83
2023-03-19T08:55:52.547Z,25.78
2023-03-19T08:56:52.527Z,25.83
2023-03-19T08:57:58.519Z,25.67
2023-03-19T08:58:52.690Z,26.10
2023-03-19T08:59:52.532Z,25.94
2023-03-19T09:00:52.580Z,25.99
2023-03-19T09:01:52.563Z,26.15
2023-03-19T09:02:52.455Z,26.15
2023-03-19T09:03:52.449Z,25.94
2023-03-19T09:04:52.524Z,26.37
2023-03-19T09:05:52.553Z,26.21
2023-03-19T09:06:52.421Z,26.31
2023-03-19T09:07:58.430Z,25.72
2023-03-19T09:08:52.396Z,26.53
2023-03-19T09:09:52.404Z,26.15
2023-03-19T09:10:58.420Z,25.83
2023-03-19T09:11:52.376Z,26.31
2023-03-19T09:12:52.355Z,26.42
2023-03-19T09:13:58.354Z,26.21
2023-03-19T09:14:52.464Z,26.53
2023-03-19T09:15:52.563Z,26.37
2023-03-19T09:16:52.352Z,26.37
2023-03-19T09:17:52.294Z,26.31
2023-03-19T09:18:52.289Z,25.94
2023-03-19T09:19:52.268Z,26.26
2023-03-19T09:20:52.270Z,26.37
2023-03-19T09:21:58.264Z,26.31
2023-03-19T09:22:52.269Z,26.42
2023-03-19T09:23:52.227Z,25.94
2023-03-19T09:24:52.262Z,26.21
2023-03-19T09:25:52.219Z,26.04
2023-03-19T09:26:58.430Z,26.04
2023-03-19T09:27:52.201Z,26.26
2023-03-19T09:28:52.202Z,25.94
2023-03-19T09:29:52.167Z,25.88
2023-03-19T09:30:52.301Z,25.83
2023-03-19T09:31:52.180Z,26.10
2023-03-19T09:32:52.411Z,25.83
2023-03-19T09:33:52.143Z,26.21
2023-03-19T09:34:52.128Z,26.42
2023-03-19T09:35:52.158Z,25.83
2023-03-19T09:37:22.847Z,26.10
2023-03-19T09:38:22.838Z,26.10
2023-03-19T09:39:22.824Z,25.99
2023-03-19T09:40:22.816Z,25.08
2023-03-19T09:41:22.801Z,26.31
2023-03-19T09:42:22.805Z,26.10
2023-03-19T09:43:22.773Z,25.94
2023-03-19T09:44:22.777Z,26.26
2023-03-19T09:45:22.754Z,25.94
2023-03-19T09:46:23.105Z,25.35
2023-03-19T09:47:22.749Z,25.45
2023-03-19T09:48:22.722Z,26.21
2023-03-19T09:49:22.708Z,25.83
2023-03-19T09:50:22.713Z,25.67
2023-03-19T09:51:22.680Z,25.62
2023-03-19T09:52:22.699Z,26.47
2023-03-19T09:53:22.692Z,24.70
2023-03-19T09:54:22.664Z,25.88
2023-03-19T09:55:22.640Z,25.62
2023-03-19T09:56:28.640Z,24.65
2023-03-19T09:57:22.634Z,25.56
2023-03-19T09:58:22.610Z,26.04
2023-03-19T09:59:22.599Z,26.15
2023-03-19T10:00:22.692Z,25.88
2023-03-19T10:01:22.626Z,25.51
2023-03-19T10:02:22.569Z,25.94
2023-03-19T10:03:22.583Z,25.35
2023-03-19T10:04:22.606Z,25.78
2023-03-19T10:05:22.570Z,25.67
2023-03-19T10:06:22.544Z,25.19
2023-03-19T10:07:28.532Z,25.62
2023-03-19T10:08:22.510Z,25.56
2023-03-19T10:09:22.487Z,24.97
2023-03-19T10:10:22.483Z,25.40
2023-03-19T10:11:22.465Z,25.78
2023-03-19T10:12:22.478Z,26.10
2023-03-19T10:13:22.447Z,25.78
2023-03-19T10:14:22.445Z,25.99
2023-03-19T10:15:22.428Z,25.72
2023-03-19T10:16:22.459Z,25.88
2023-03-19T10:17:22.404Z,25.67
2023-03-19T10:18:22.394Z,25.29
2023-03-19T10:19:22.412Z,25.88
2023-03-19T10:20:22.393Z,25.72
2023-03-19T10:21:22.373Z,25.62
2023-03-19T10:22:22.355Z,25.67
2023-03-19T10:23:22.352Z,25.99
2023-03-19T10:24:22.753Z,25.51
2023-03-19T10:25:22.327Z,25.72
2023-03-19T10:26:22.318Z,25.88
2023-03-19T10:27:22.306Z,25.45
2023-03-19T10:28:22.284Z,25.83
2023-03-19T10:29:22.500Z,25.83
2023-03-19T10:30:22.272Z,26.10
2023-03-19T10:31:22.332Z,25.78
2023-03-19T10:32:22.248Z,26.10
2023-03-19T10:33:22.235Z,25.88
2023-03-19T10:34:22.247Z,25.62
2023-03-19T10:35:22.252Z,25.24
2023-03-19T10:36:22.316Z,25.83
2023-03-19T10:37:22.219Z,25.62
2023-03-19T10:38:28.229Z,25.94
2023-03-19T10:39:22.207Z,25.83
2023-03-19T10:40:22.353Z,25.56
2023-03-19T10:41:22.160Z,26.21
2023-03-19T10:42:28.159Z,25.51
2023-03-19T10:43:22.135Z,25.78
2023-03-19T10:44:22.110Z,25.72
2023-03-19T10:45:22.118Z,26.04
2023-03-19T10:46:22.107Z,26.04
2023-03-19T10:47:22.107Z,26.15
2023-03-19T10:48:22.300Z,26.10
2023-03-19T10:49:22.275Z,25.40
2023-03-19T10:50:22.046Z,26.04
2023-03-19T10:51:22.070Z,26.58
2023-03-19T10:52:22.036Z,25.78
2023-03-19T10:53:22.037Z,25.88
2023-03-19T10:54:22.008Z,25.83
2023-03-19T10:55:21.999Z,25.62
2023-03-19T10:56:21.993Z,25.67
2023-03-19T10:57:21.979Z,25.78
2023-03-19T10:58:21.961Z,25.56
2023-03-19T10:59:21.971Z,25.67
2023-03-19T11:00:21.943Z,26.10
2023-03-19T11:01:22.026Z,25.99
2023-03-19T11:02:21.915Z,25.56
2023-03-19T11:03:21.912Z,26.10
2023-03-19T11:04:21.902Z,25.78
2023-03-19T11:05:21.905Z,25.99
2023-03-19T11:06:21.878Z,25.99
2023-03-19T11:07:22.038Z,25.78
2023-03-19T11:08:34.972Z,25.67
2023-03-19T11:09:22.891Z,25.78
2023-03-19T11:10:21.842Z,25.62
2023-03-19T11:11:21.824Z,26.15
2023-03-19T11:12:21.800Z,25.56
2023-03-19T11:13:21.812Z,25.62
2023-03-19T11:14:21.807Z,25.78
2023-03-19T11:15:21.788Z,25.67
2023-03-19T11:16:21.783Z,25.56
2023-03-19T11:17:21.758Z,25.78
2023-03-19T11:18:21.754Z,25.83
2023-03-19T11:19:21.741Z,25.67
2023-03-19T11:20:21.727Z,25.62
2023-03-19T11:21:21.718Z,25.62
2023-03-19T11:22:21.695Z,25.78
2023-03-19T11:23:21.720Z,25.99
2023-03-19T11:24:21.685Z,25.35
2023-03-19T11:25:21.690Z,25.56
2023-03-19T11:26:21.697Z,25.67
2023-03-19T11:27:21.653Z,25.62
2023-03-19T11:28:24.208Z,26.10
2023-03-19T11:29:21.639Z,25.19
2023-03-19T11:30:21.611Z,25.67
2023-03-19T11:31:21.873Z,25.83
2023-03-19T11:32:22.592Z,25.72
2023-03-19T11:33:21.757Z,25.78
2023-03-19T11:34:21.573Z,25.78
2023-03-19T11:35:21.578Z,25.72
2023-03-19T11:36:21.544Z,26.37
2023-03-19T11:37:21.552Z,26.21
2023-03-19T11:38:21.526Z,25.88
2023-03-19T11:39:21.542Z,25.94
2023-03-19T11:40:23.439Z,25.72
2023-03-19T11:41:21.521Z,26.21
2023-03-19T11:42:21.479Z,25.88
2023-03-19T11:43:21.484Z,25.99
2023-03-19T11:44:21.461Z,25.67
2023-03-19T11:45:21.472Z,25.99
2023-03-19T11:46:21.527Z,26.04
2023-03-19T11:47:27.418Z,25.72
2023-03-19T11:48:22.659Z,25.78
2023-03-19T11:49:21.419Z,25.94
2023-03-19T11:50:56.107Z,25.88
2023-03-19T11:51:56.083Z,25.83
2023-03-19T11:52:56.090Z,25.83
2023-03-19T11:53:56.067Z,25.56
2023-03-19T11:54:56.072Z,26.04
2023-03-19T11:55:56.043Z,25.67
2023-03-19T11:56:56.031Z,26.15
2023-03-19T11:57:56.023Z,25.94
2023-03-19T11:58:56.006Z,25.88
2023-03-19T11:59:56.008Z,25.13
2023-03-19T12:00:56.196Z,25.99
2023-03-19T12:01:55.996Z,26.37
2023-03-19T12:02:55.965Z,26.21
2023-03-19T12:03:56.061Z,26.42
2023-03-19T12:04:56.159Z,26.31
2023-03-19T12:05:55.950Z,26.69
2023-03-19T12:06:55.921Z,26.69
2023-03-19T12:07:55.916Z,26.47
2023-03-19T12:08:55.909Z,26.69
2023-03-19T12:09:55.903Z,26.85
2023-03-19T12:10:55.928Z,26.74
2023-03-19T12:11:55.887Z,26.42
2023-03-19T12:12:55.859Z,26.69
2023-03-19T12:14:01.863Z,26.90
2023-03-19T12:14:55.837Z,26.58
2023-03-19T12:15:56.113Z,26.53
2023-03-19T12:16:55.822Z,27.07
2023-03-19T12:17:55.820Z,26.80
2023-03-19T12:18:55.820Z,26.85
2023-03-19T12:19:55.796Z,26.37
2023-03-19T12:20:55.778Z,26.64
2023-03-19T12:21:55.774Z,26.74
2023-03-19T12:22:55.771Z,26.96
2023-03-19T12:23:55.764Z,26.96
2023-03-19T12:24:55.733Z,26.58
2023-03-19T12:25:55.736Z,26.80
2023-03-19T12:26:55.739Z,26.96
2023-03-19T12:27:55.715Z,26.85
2023-03-19T12:28:55.707Z,26.80
2023-03-19T12:29:55.701Z,26.90
2023-03-19T12:31:01.936Z,26.74
2023-03-19T12:32:01.873Z,26.74
2023-03-19T12:32:55.796Z,26.69
2023-03-19T12:33:55.658Z,26.74
2023-03-19T12:35:01.652Z,26.80
2023-03-19T12:35:55.640Z,26.42
2023-03-19T12:36:55.620Z,26.
2023-03-19T12:37:55.607Z,26.
2023-03-19T12:38:55.606Z,26.
2023-03-19T12:39:55.586Z,2
2023-03-19T12:40:55.589Z,26.
2023-03-19T12:41:55.559Z,26.
2023-03-19T12:42:55.787Z,26.
2023-03-19T12:43:55.545Z,26.26
2023-03-19T12:44:55.754Z,26.74
2023-03-19T12:45:57.778Z,26.85
2023-03-19T12:46:58.499Z,26.
2023-03-19T12:47:55.717Z,26.58
2023-03-19T12:49:01.506Z,26.
2023-03-19T12:49:55.479Z,26.42
2023-03-19T12:50:55.478Z,26.
2023-03-19T12:51:55.473Z,26.69
2023-03-19T12:52:57.847Z,26.
2023-03-19T12:53:55.441Z,26.64
2023-03-19T12:54:55.461Z,26.64
2023-03-19T12:55:55.414Z,26.31
2023-03-19T12:56:55.419Z,26.58
2023-03-19T12:57:55.399Z,26.90
2023-03-19T12:58:58.776Z,26.90
2023-03-19T12:59:55.390Z,26.74
2023-03-19T13:01:01.380Z,27.01
2023-03-19T13:02:01.509Z,27.28
2023-03-19T13:02:55.342Z,27.12
2023-03-19T13:03:55.373Z,27.23
2023-03-19T13:04:55.412Z,27.23
2023-03-19T13:06:01.538Z,27.28
2023-03-19T13:07:02.139Z,27.28
2023-03-19T13:07:55.306Z,27.33
2023-03-19T13:09:01.289Z,27.17
2023-03-19T13:09:55.285Z,27.23
2023-03-19T13:10:55.472Z,27.23
2023-03-19T13:12:01.476Z,27.
2023-03-19T13:12:55.250Z,27.12
2023-03-19T13:13:55.253Z,27.17
2023-03-19T13:14:55.461Z,27.
2023-03-19T13:16:01.690Z,27.
2023-03-19T13:17:29.917Z,27.17
2023-03-19T13:18:29.900Z,27.23
2023-03-19T13:19:29.891Z,27.39
2023-03-19T13:20:29.882Z,27.39
2023-03-19T13:21:30.071Z,27.17
2023-03-19T13:22:29.874Z,27.12
2023-03-19T13:23:29.854Z,27.
2023-03-19T13:24:29.863Z,27.
2023-03-19T13:25:31.910Z,2
2023-03-19T13:26:29.827Z,27.17
2023-03-19T13:27:29.845Z,27.
2023-03-19T13:28:29.797Z,26.
2023-03-19T13:29:29.801Z,27.
2023-03-19T13:30:32.225Z,27.23
2023-03-19T13:31:29.860Z,26.
2023-03-19T13:32:29.774Z,26.90
2023-03-19T13:33:29.760Z,2
2023-03-19T13:34:29.750Z,27.
2023-03-19T13:35:29.729Z,26.
2023-03-19T13:36:29.721Z,26.
2023-03-19T13:37:35.736Z,2
2023-03-19T13:38:29.707Z,26.
2023-03-19T13:39:35.729Z,26.
2023-03-19T13:40:29.697Z,26.
2023-03-19T13:41:29.706Z,26.